Time;durP1;ratioP1;P1;durP2;ratioP2;P2;SDS_P1;SDS_P2;PMS_P1;PMS_P2;Temp;Humidity;BMP_temperature;BMP_pressure;BME280_temperature;BME280_humidity;BME280_pressure;Samples;Min_cycle;Max_cycle;Signal;HPM_P1;HPM_P2
2021/11/04 00:00:33;;;;;;;18.05;12.65;;;;;;;;;;143719;565;46018;-57
2021/11/04 00:03:01;;;;;;;15.52;11.95;;;;;;;;;;143725;688;47010;-57
2021/11/04 00:05:28;;;;;;;16.02;12.27;;;;;;;;;;143724;574;47020;-57
2021/11/04 00:07:58;;;;;;;20.15;15.98;;;;;;;;;;143724;579;47010;-57
2021/11/04 00:10:26;;;;;;;21.05;13.93;;;;;;;;;;143723;577;46018;-57
2021/11/04 00:12:54;;;;;;;21.45;15.40;;;;;;;;;;143729;620;46022;-57
2021/11/04 00:15:21;;;;;;;18.77;12.93;;;;;;;;;;143726;594;47020;-58
2021/11/04 00:17:50;;;;;;;20.30;13.50;;;;;;;;;;143725;564;47021;-57
2021/11/04 00:20:18;;;;;;;22.20;13.68;;;;;;;;;;143727;583;46018;-57
2021/11/04 00:22:46;;;;;;;25.27;18.00;;;;;;;;;;143729;586;46022;-57
2021/11/04 00:25:13;;;;;;;19.90;13.85;;;;;;;;;;143720;575;46020;-57
2021/11/04 00:27:41;;;;;;;23.87;13.98;;;;;;;;;;143726;581;47010;-57
2021/11/04 00:30:09;;;;;;;18.20;12.82;;;;;;;;;;143725;571;47019;-58
2021/11/04 00:32:37;;;;;;;30.73;14.80;;;;;;;;;;143722;727;46023;-57
2021/11/04 00:35:05;;;;;;;22.70;13.62;;;;;;;;;;143727;572;46020;-58
2021/11/04 00:37:33;;;;;;;24.35;15.35;;;;;;;;;;143724;564;47010;-57
2021/11/04 00:40:00;;;;;;;24.20;15.90;;;;;;;;;;143725;558;46019;-57
2021/11/04 00:42:27;;;;;;;18.02;12.55;;;;;;;;;;143729;569;46022;-57
2021/11/04 00:44:54;;;;;;;29.33;18.33;;;;;;;;;;143726;582;46020;-57
2021/11/04 00:47:21;;;;;;;27.30;18.00;;;;;;;;;;143729;572;45917;-57
2021/11/04 00:49:49;;;;;;;19.17;14.23;;;;;;;;;;143719;571;46018;-57
2021/11/04 00:52:16;;;;;;;28.48;18.02;;;;;;;;;;143727;580;46022;-58
2021/11/04 00:54:43;;;;;;;24.67;16.42;;;;;;;;;;143728;588;46021;-57
2021/11/04 00:57:10;;;;;;;28.92;17.73;;;;;;;;;;143726;593;46022;-57
2021/11/04 00:59:38;;;;;;;25.88;18.52;;;;;;;;;;143728;571;47018;-57
2021/11/04 01:02:06;;;;;;;20.62;15.95;;;;;;;;;;143730;574;46023;-57
2021/11/04 01:04:33;;;;;;;26.40;17.37;;;;;;;;;;143725;569;47018;-57
2021/11/04 01:07:00;;;;;;;16.00;13.40;;;;;;;;;;143725;596;46917;-57
2021/11/04 01:09:27;;;;;;;15.70;12.00;;;;;;;;;;143725;608;46019;-57
2021/11/04 01:11:55;;;;;;;24.42;17.83;;;;;;;;;;143727;599;46022;-57
2021/11/04 01:14:22;;;;;;;22.80;17.27;;;;;;;;;;143720;581;46040;-57
2021/11/04 01:16:49;;;;;;;24.27;17.12;;;;;;;;;;143725;578;47010;-58
2021/11/04 01:19:16;;;;;;;33.92;20.48;;;;;;;;;;143727;576;46018;-58
2021/11/04 01:21:44;;;;;;;37.20;24.55;;;;;;;;;;143728;572;46022;-57
2021/11/04 01:24:11;;;;;;;24.23;20.12;;;;;;;;;;143726;585;46021;-57
2021/11/04 01:26:38;;;;;;;26.98;19.70;;;;;;;;;;143720;580;47010;-57
2021/11/04 01:29:05;;;;;;;23.30;17.20;;;;;;;;;;143724;609;46018;-57
2021/11/04 01:31:32;;;;;;;24.50;17.98;;;;;;;;;;143727;607;46023;-57
2021/11/04 01:33:59;;;;;;;28.90;18.80;;;;;;;;;;143725;640;46020;-57
2021/11/04 01:36:27;;;;;;;18.40;13.15;;;;;;;;;;143726;590;46011;-57
2021/11/04 01:38:54;;;;;;;20.12;16.92;;;;;;;;;;143718;600;47019;-58
2021/11/04 01:41:22;;;;;;;20.33;14.18;;;;;;;;;;143725;587;46022;-57
2021/11/04 01:43:49;;;;;;;23.67;17.48;;;;;;;;;;143725;600;47019;-57
2021/11/04 01:46:20;;;;;;;20.17;13.85;;;;;;;;;;143726;569;46022;-58
2021/11/04 01:48:48;;;;;;;27.00;17.95;;;;;;;;;;143726;590;46018;-58
2021/11/04 01:51:16;;;;;;;36.55;22.20;;;;;;;;;;143726;632;47010;-58
2021/11/04 01:53:43;;;;;;;21.45;13.95;;;;;;;;;;143727;630;46021;-57
2021/11/04 01:56:11;;;;;;;23.92;14.27;;;;;;;;;;143726;614;46917;-58
2021/11/04 01:58:38;;;;;;;27.65;16.98;;;;;;;;;;143728;569;46018;-57
2021/11/04 02:01:06;;;;;;;30.23;20.70;;;;;;;;;;143728;600;47010;-57
2021/11/04 02:04:30;;;;;;;30.17;21.25;;;;;;;;;;143720;580;47018;-58
2021/11/04 02:07:03;;;;;;;34.20;20.55;;;;;;;;;;143724;578;47010;-57
2021/11/04 02:09:46;;;;;;;31.12;23.70;;;;;;;;;;143726;575;46910;-57
2021/11/04 02:12:23;;;;;;;42.45;27.15;;;;;;;;;;143728;585;47010;-57
2021/11/04 02:14:56;;;;;;;55.50;38.28;;;;;;;;;;143727;625;46020;-57
2021/11/04 02:17:24;;;;;;;30.40;19.58;;;;;;;;;;143724;621;47010;-57
2021/11/04 02:19:56;;;;;;;39.17;23.70;;;;;;;;;;143724;662;47018;-57
2021/11/04 02:22:46;;;;;;;46.17;29.02;;;;;;;;;;143732;574;46023;-57
2021/11/04 02:25:20;;;;;;;26.52;18.75;;;;;;;;;;143726;582;47018;-58
2021/11/04 02:27:53;;;;;;;31.17;19.62;;;;;;;;;;143726;580;47010;-58
2021/11/04 02:30:21;;;;;;;38.10;24.85;;;;;;;;;;143720;573;46019;-58
2021/11/04 02:32:50;;;;;;;29.02;20.52;;;;;;;;;;143728;645;46022;-57
2021/11/04 02:35:19;;;;;;;69.37;38.00;;;;;;;;;;143723;583;46020;-58
2021/11/04 02:37:48;;;;;;;67.35;38.78;;;;;;;;;;143727;589;46919;-57
2021/11/04 02:40:16;;;;;;;22.20;17.35;;;;;;;;;;143727;572;46018;-58
2021/11/04 02:42:43;;;;;;;40.88;24.98;;;;;;;;;;143729;681;46022;-57
2021/11/04 02:45:13;;;;;;;46.75;28.67;;;;;;;;;;143726;585;46020;-57
2021/11/04 02:47:42;;;;;;;42.83;26.87;;;;;;;;;;143727;589;47010;-57
2021/11/04 02:50:11;;;;;;;35.20;26.17;;;;;;;;;;143725;564;47018;-58
2021/11/04 02:52:39;;;;;;;29.55;20.37;;;;;;;;;;143728;593;47010;-58
2021/11/04 02:55:07;;;;;;;28.12;19.08;;;;;;;;;;143719;564;47020;-57
2021/11/04 02:57:54;;;;;;;40.88;26.37;;;;;;;;;;143725;629;47010;-57
2021/11/04 03:00:22;;;;;;;50.45;30.88;;;;;;;;;;143727;592;46045;-57
2021/11/04 03:02:49;;;;;;;49.08;29.95;;;;;;;;;;143730;580;46022;-58
2021/11/04 03:05:16;;;;;;;27.90;18.35;;;;;;;;;;143726;594;47020;-58
2021/11/04 03:07:44;;;;;;;30.83;21.62;;;;;;;;;;143729;582;46010;-57
2021/11/04 03:10:11;;;;;;;35.50;21.33;;;;;;;;;;143724;597;46018;-57
2021/11/04 03:12:39;;;;;;;43.45;27.73;;;;;;;;;;143727;572;47010;-57
2021/11/04 03:15:15;;;;;;;41.03;25.23;;;;;;;;;;143729;565;46021;-58
2021/11/04 03:17:42;;;;;;;;;;;;;;;;;;143729;978;47010;-58
2021/11/04 03:20:11;;;;;;;52.60;33.30;;;;;;;;;;143731;571;46018;-57
2021/11/04 03:22:40;;;;;;;57.05;32.80;;;;;;;;;;143728;582;46023;-57
2021/11/04 03:25:08;;;;;;;54.67;29.60;;;;;;;;;;143725;564;47018;-57
2021/11/04 03:27:39;;;;;;;64.05;35.03;;;;;;;;;;143728;612;46012;-57
2021/11/04 03:30:09;;;;;;;42.75;25.67;;;;;;;;;;143728;624;46019;-58
2021/11/04 03:32:38;;;;;;;64.75;35.10;;;;;;;;;;143730;578;46022;-58
2021/11/04 03:35:08;;;;;;;48.45;28.08;;;;;;;;;;143726;747;46020;-58
2021/11/04 03:37:39;;;;;;;71.60;38.80;;;;;;;;;;143727;586;46022;-57
2021/11/04 03:40:09;;;;;;;69.65;34.13;;;;;;;;;;143726;728;47018;-58
2021/11/04 03:42:37;;;;;;;42.55;24.40;;;;;;;;;;143729;590;47010;-58
2021/11/04 03:45:08;;;;;;;55.45;31.05;;;;;;;;;;143721;614;46021;-58
2021/11/04 03:47:36;;;;;;;70.12;35.35;;;;;;;;;;143727;593;46012;-57
2021/11/04 03:50:06;;;;;;;52.85;31.90;;;;;;;;;;143727;599;46018;-58
2021/11/04 03:52:34;;;;;;;49.85;28.70;;;;;;;;;;143724;612;47010;-58
2021/11/04 03:55:01;;;;;;;62.40;33.40;;;;;;;;;;143731;672;46020;-57
2021/11/04 03:57:29;;;;;;;55.53;29.80;;;;;;;;;;143731;594;45919;-57
2021/11/04 03:59:56;;;;;;;49.67;28.75;;;;;;;;;;143728;627;46019;-58
2021/11/04 04:02:25;;;;;;;46.90;28.02;;;;;;;;;;143730;648;46022;-58
2021/11/04 04:04:55;;;;;;;62.00;35.20;;;;;;;;;;143727;607;47018;-57
2021/11/04 04:07:34;;;;;;;68.22;37.40;;;;;;;;;;143727;571;46012;-57
2021/11/04 04:10:01;;;;;;;84.80;34.33;;;;;;;;;;143723;579;46018;-57
2021/11/04 04:12:28;;;;;;;132.00;44.53;;;;;;;;;;143730;577;46022;-57
2021/11/04 04:14:55;;;;;;;108.87;40.40;;;;;;;;;;143729;597;46021;-57
2021/11/04 04:17:23;;;;;;;63.15;31.70;;;;;;;;;;143730;564;46010;-58
2021/11/04 04:19:52;;;;;;;88.25;38.42;;;;;;;;;;143727;605;46018;-57
2021/11/04 04:22:20;;;;;;;108.22;41.55;;;;;;;;;;143731;592;46023;-57
2021/11/04 04:24:47;;;;;;;92.80;40.92;;;;;;;;;;143728;589;47020;-57
2021/11/04 04:27:15;;;;;;;105.47;39.67;;;;;;;;;;143724;573;47010;-57
2021/11/04 04:29:43;;;;;;;108.22;37.05;;;;;;;;;;143724;627;47018;-57
2021/11/04 04:32:09;;;;;;;85.97;39.17;;;;;;;;;;143730;566;46022;-57
2021/11/04 04:34:37;;;;;;;94.35;41.22;;;;;;;;;;143722;599;46020;-57
2021/11/04 04:37:05;;;;;;;79.93;40.08;;;;;;;;;;143728;569;46012;-57
2021/11/04 04:39:33;;;;;;;70.12;34.30;;;;;;;;;;143729;610;46018;-57
2021/11/04 04:42:01;;;;;;;122.05;45.75;;;;;;;;;;143730;564;47010;-57
2021/11/04 04:44:29;;;;;;;106.90;48.05;;;;;;;;;;143729;565;46021;-57
2021/11/04 04:46:56;;;;;;;102.82;45.25;;;;;;;;;;143725;593;47010;-57
2021/11/04 04:49:24;;;;;;;79.93;39.85;;;;;;;;;;143728;591;46018;-57
2021/11/04 04:51:51;;;;;;;71.53;37.72;;;;;;;;;;143730;565;46023;-56
2021/11/04 04:54:18;;;;;;;68.78;34.92;;;;;;;;;;143730;603;46020;-56
2021/11/04 04:56:45;;;;;;;169.90;52.10;;;;;;;;;;143726;673;47011;-57
2021/11/04 04:59:14;;;;;;;76.93;35.50;;;;;;;;;;143722;616;46019;-57
2021/11/04 05:01:41;;;;;;;73.32;37.70;;;;;;;;;;143731;589;46022;-57
2021/11/04 05:04:08;;;;;;;72.07;38.50;;;;;;;;;;143726;632;46020;-57
2021/11/04 05:06:35;;;;;;;70.62;38.17;;;;;;;;;;143729;571;46010;-58
2021/11/04 05:09:04;;;;;;;69.22;39.50;;;;;;;;;;143726;608;46018;-57
2021/11/04 05:11:31;;;;;;;68.93;38.22;;;;;;;;;;143728;589;46022;-58
2021/11/04 05:13:58;;;;;;;64.75;36.00;;;;;;;;;;143726;605;47021;-57
2021/11/04 05:16:26;;;;;;;69.90;38.17;;;;;;;;;;143728;616;46010;-58
2021/11/04 05:18:53;;;;;;;64.90;37.35;;;;;;;;;;143727;623;46018;-58
2021/11/04 05:21:20;;;;;;;66.47;38.28;;;;;;;;;;143729;585;46023;-57
2021/11/04 05:23:48;;;;;;;73.03;37.13;;;;;;;;;;143721;579;46020;-57
2021/11/04 05:26:15;;;;;;;64.47;35.35;;;;;;;;;;143728;601;46012;-57
2021/11/04 05:28:42;;;;;;;86.40;46.03;;;;;;;;;;143725;619;46019;-57
2021/11/04 05:31:09;;;;;;;80.78;44.33;;;;;;;;;;143729;630;46022;-57
2021/11/04 05:33:37;;;;;;;80.62;44.90;;;;;;;;;;143726;570;47020;-57
2021/11/04 05:36:04;;;;;;;78.25;42.62;;;;;;;;;;143727;622;46011;-56
2021/11/04 05:38:31;;;;;;;72.93;41.05;;;;;;;;;;143724;566;46018;-56
2021/11/04 05:40:58;;;;;;;68.68;33.40;;;;;;;;;;143730;617;46022;-56
2021/11/04 05:43:25;;;;;;;68.78;37.50;;;;;;;;;;143727;599;47037;-56
2021/11/04 05:45:53;;;;;;;77.78;44.40;;;;;;;;;;143725;597;47010;-57
2021/11/04 05:48:20;;;;;;;107.60;54.83;;;;;;;;;;143722;572;46018;-56
2021/11/04 05:50:46;;;;;;;114.68;57.72;;;;;;;;;;143728;590;46023;-57
2021/11/04 05:53:14;;;;;;;117.47;60.00;;;;;;;;;;143726;585;46020;-57
2021/11/04 05:55:41;;;;;;;115.50;58.45;;;;;;;;;;143726;640;47010;-56
2021/11/04 05:58:08;;;;;;;94.78;49.50;;;;;;;;;;143727;601;46019;-57
2021/11/04 06:00:35;;;;;;;103.35;50.47;;;;;;;;;;143729;575;46023;-56
2021/11/04 06:03:02;;;;;;;95.62;50.35;;;;;;;;;;143728;593;46020;-57
2021/11/04 06:05:30;;;;;;;95.22;51.33;;;;;;;;;;143726;707;47010;-57
2021/11/04 06:07:57;;;;;;;101.72;54.28;;;;;;;;;;143726;609;46018;-57
2021/11/04 06:10:24;;;;;;;111.82;55.40;;;;;;;;;;143729;593;46022;-57
2021/11/04 06:12:51;;;;;;;96.75;52.25;;;;;;;;;;143720;585;48019;-57
2021/11/04 06:15:18;;;;;;;92.80;49.05;;;;;;;;;;143725;636;47010;-57
2021/11/04 06:17:45;;;;;;;95.22;50.03;;;;;;;;;;143726;575;46018;-57
2021/11/04 06:20:12;;;;;;;96.75;49.25;;;;;;;;;;143730;587;46022;-57
2021/11/04 06:22:40;;;;;;;62.95;34.78;;;;;;;;;;143727;572;47018;-56
2021/11/04 06:25:07;;;;;;;56.90;30.67;;;;;;;;;;143728;615;46027;-56
2021/11/04 06:27:34;;;;;;;53.85;26.25;;;;;;;;;;143726;607;46019;-56
2021/11/04 06:30:04;;;;;;;49.75;25.73;;;;;;;;;;143730;582;46022;-56
2021/11/04 06:32:31;;;;;;;87.20;43.87;;;;;;;;;;143726;586;47020;-55
2021/11/04 06:34:58;;;;;;;113.60;57.38;;;;;;;;;;143726;575;47010;-56
2021/11/04 06:37:25;;;;;;;88.15;48.28;;;;;;;;;;143721;585;46018;-57
2021/11/04 06:39:53;;;;;;;71.85;38.05;;;;;;;;;;143727;563;46022;-57
2021/11/04 06:42:20;;;;;;;97.15;50.38;;;;;;;;;;143727;619;47019;-57
2021/11/04 06:44:47;;;;;;;84.07;45.25;;;;;;;;;;143727;602;47010;-56
2021/11/04 06:47:46;;;;;;;73.90;41.50;;;;;;;;;;143726;593;46018;-57
2021/11/04 06:50:15;;;;;;;90.05;45.78;;;;;;;;;;143731;638;46025;-58
2021/11/04 06:53:11;;;;;;;92.07;47.45;;;;;;;;;;143728;581;46021;-57
2021/11/04 06:55:40;;;;;;;89.55;49.03;;;;;;;;;;143727;607;47010;-57
2021/11/04 06:58:14;;;;;;;89.97;47.67;;;;;;;;;;143727;599;46019;-57
2021/11/04 07:00:45;;;;;;;91.35;49.42;;;;;;;;;;143728;564;47010;-57
2021/11/04 07:03:23;;;;;;;79.32;44.58;;;;;;;;;;143720;623;47018;-58
2021/11/04 07:05:56;;;;;;;51.97;29.05;;;;;;;;;;143726;626;47010;-58
2021/11/04 07:08:24;;;;;;;55.80;30.00;;;;;;;;;;143729;586;46018;-58
2021/11/04 07:11:00;;;;;;;47.17;28.23;;;;;;;;;;143729;573;46022;-58
2021/11/04 07:13:31;;;;;;;53.50;30.92;;;;;;;;;;143728;615;47019;-58
2021/11/04 07:16:00;;;;;;;42.33;27.92;;;;;;;;;;143727;577;47918;-58
2021/11/04 07:18:28;;;;;;;43.63;26.50;;;;;;;;;;143724;606;46018;-58
2021/11/04 07:21:15;;;;;;;49.72;29.83;;;;;;;;;;143729;576;46023;-58
2021/11/04 07:24:07;;;;;;;48.55;27.92;;;;;;;;;;143728;601;46041;-58
2021/11/04 07:26:40;;;;;;;45.28;26.08;;;;;;;;;;143725;639;47010;-57
2021/11/04 07:29:09;;;;;;;37.10;24.90;;;;;;;;;;143721;617;46018;-58
2021/11/04 07:31:39;;;;;;;43.75;25.30;;;;;;;;;;143727;573;46022;-58
2021/11/04 07:34:12;;;;;;;38.67;23.80;;;;;;;;;;143726;646;47019;-58
2021/11/04 07:36:49;;;;;;;36.80;22.83;;;;;;;;;;143727;582;47010;-57
2021/11/04 07:39:15;;;;;;;34.78;22.25;;;;;;;;;;143728;569;47010;-58
2021/11/04 07:41:42;;;;;;;38.55;23.85;;;;;;;;;;143730;584;46022;-58
2021/11/04 07:44:09;;;;;;;30.88;21.02;;;;;;;;;;143725;583;47018;-59
2021/11/04 07:46:36;;;;;;;36.30;23.60;;;;;;;;;;143725;605;47010;-58
2021/11/04 07:49:03;;;;;;;41.03;24.45;;;;;;;;;;143725;566;46018;-58
2021/11/04 07:51:30;;;;;;;31.37;22.58;;;;;;;;;;143730;810;46023;-58
2021/11/04 07:53:58;;;;;;;40.10;26.90;;;;;;;;;;143723;565;47018;-58
2021/11/04 07:56:25;;;;;;;32.72;22.77;;;;;;;;;;143729;597;46022;-58
2021/11/04 07:58:52;;;;;;;27.75;18.40;;;;;;;;;;143726;569;46018;-58
2021/11/04 08:01:19;;;;;;;27.75;17.80;;;;;;;;;;143730;741;46022;-60
2021/11/04 08:03:46;;;;;;;40.58;24.02;;;;;;;;;;143725;841;47019;-58
2021/11/04 08:06:13;;;;;;;42.22;26.35;;;;;;;;;;143727;691;47010;-56
2021/11/04 08:08:40;;;;;;;44.80;29.48;;;;;;;;;;143728;631;46018;-56
2021/11/04 08:11:07;;;;;;;43.75;26.83;;;;;;;;;;143729;681;46022;-55
2021/11/04 08:13:34;;;;;;;39.00;23.62;;;;;;;;;;143725;569;47018;-56
2021/11/04 08:16:01;;;;;;;42.15;28.38;;;;;;;;;;143724;569;47010;-56
2021/11/04 08:18:28;;;;;;;51.42;29.02;;;;;;;;;;143720;591;46018;-56
2021/11/04 08:20:54;;;;;;;44.40;26.80;;;;;;;;;;143726;674;46023;-56
2021/11/04 08:23:22;;;;;;;40.78;26.70;;;;;;;;;;143724;570;47018;-56
2021/11/04 08:25:50;;;;;;;44.80;27.13;;;;;;;;;;143723;592;47028;-56
2021/11/04 08:28:18;;;;;;;50.05;29.83;;;;;;;;;;143725;584;46019;-56
2021/11/04 08:30:45;;;;;;;44.28;28.55;;;;;;;;;;143727;602;46022;-56
2021/11/04 08:33:13;;;;;;;50.58;28.12;;;;;;;;;;143722;565;49019;-55
2021/11/04 08:35:40;;;;;;;77.85;52.50;;;;;;;;;;143721;584;47010;-56
2021/11/04 08:38:07;;;;;;;57.10;38.67;;;;;;;;;;143725;592;46018;-56
2021/11/04 08:40:33;;;;;;;51.75;31.45;;;;;;;;;;143727;591;46022;-56
2021/11/04 08:43:02;;;;;;;53.58;34.55;;;;;;;;;;143719;610;47030;-55
2021/11/04 08:45:29;;;;;;;49.33;29.98;;;;;;;;;;143724;599;47010;-56
2021/11/04 08:47:56;;;;;;;47.20;27.08;;;;;;;;;;143724;653;46018;-56
2021/11/04 08:50:23;;;;;;;50.75;31.83;;;;;;;;;;143728;630;46023;-57
2021/11/04 08:52:52;;;;;;;41.25;27.02;;;;;;;;;;143723;575;47020;-56
2021/11/04 08:55:21;;;;;;;42.85;25.55;;;;;;;;;;143723;593;47011;-56
2021/11/04 08:57:50;;;;;;;40.90;26.87;;;;;;;;;;143724;593;47019;-57
2021/11/04 09:00:17;;;;;;;44.53;28.65;;;;;;;;;;143727;581;46022;-55
2021/11/04 09:02:44;;;;;;;46.22;26.87;;;;;;;;;;143725;564;47019;-56
2021/11/04 09:05:11;;;;;;;40.95;23.95;;;;;;;;;;143723;570;47010;-55
2021/11/04 09:07:39;;;;;;;39.45;22.42;;;;;;;;;;143720;575;46018;-57
2021/11/04 09:10:07;;;;;;;41.25;22.02;;;;;;;;;;143728;668;46022;-55
2021/11/04 09:12:36;;;;;;;35.85;22.10;;;;;;;;;;143725;586;47028;-55
2021/11/04 09:15:03;;;;;;;42.72;27.08;;;;;;;;;;143718;708;50026;-55
2021/11/04 09:17:31;;;;;;;53.20;38.03;;;;;;;;;;143723;692;46018;-55
2021/11/04 09:19:58;;;;;;;42.42;20.08;;;;;;;;;;143726;571;47012;-54
2021/11/04 09:22:25;;;;;;;32.35;20.80;;;;;;;;;;143724;637;47020;-55
2021/11/04 09:24:53;;;;;;;33.20;21.77;;;;;;;;;;143723;576;47010;-55
2021/11/04 09:27:20;;;;;;;28.67;20.67;;;;;;;;;;143725;611;46019;-55
2021/11/04 09:29:48;;;;;;;37.45;26.73;;;;;;;;;;143727;564;46022;-56
2021/11/04 09:32:15;;;;;;;26.33;18.20;;;;;;;;;;143715;588;47019;-55
2021/11/04 09:34:42;;;;;;;37.78;24.80;;;;;;;;;;143724;570;47010;-56
2021/11/04 09:37:10;;;;;;;35.20;25.92;;;;;;;;;;143723;585;46018;-56
2021/11/04 09:39:37;;;;;;;43.25;19.83;;;;;;;;;;143726;576;47013;-56
2021/11/04 09:42:04;;;;;;;40.95;21.20;;;;;;;;;;143727;590;47018;-57
2021/11/04 09:44:31;;;;;;;60.53;35.17;;;;;;;;;;143724;592;47010;-56
2021/11/04 09:46:58;;;;;;;40.38;25.25;;;;;;;;;;143721;621;47018;-56
2021/11/04 09:49:27;;;;;;;31.48;20.80;;;;;;;;;;143727;617;46023;-55
2021/11/04 09:51:58;;;;;;;39.45;23.58;;;;;;;;;;143724;565;47018;-56
2021/11/04 09:54:24;;;;;;;35.50;21.95;;;;;;;;;;143724;566;47010;-56
2021/11/04 09:56:51;;;;;;;40.58;23.40;;;;;;;;;;143719;603;46019;-55
2021/11/04 09:59:18;;;;;;;31.35;20.85;;;;;;;;;;143729;582;46022;-55
2021/11/04 10:01:50;;;;;;;32.13;18.58;;;;;;;;;;143726;580;47018;-54
2021/11/04 10:04:34;;;;;;;36.42;17.20;;;;;;;;;;143722;573;48024;-55
2021/11/04 10:07:01;;;;;;;24.48;15.90;;;;;;;;;;143730;649;46018;-55
2021/11/04 10:09:28;;;;;;;28.73;17.95;;;;;;;;;;143726;589;46022;-55
2021/11/04 10:11:56;;;;;;;26.10;15.43;;;;;;;;;;143722;617;48019;-55
2021/11/04 10:14:23;;;;;;;20.25;13.38;;;;;;;;;;143724;583;47010;-55
2021/11/04 10:16:54;;;;;;;15.05;9.25;;;;;;;;;;143722;566;46018;-55
2021/11/04 10:19:21;;;;;;;21.67;13.07;;;;;;;;;;143727;599;46023;-56
2021/11/04 10:21:52;;;;;;;21.52;13.10;;;;;;;;;;143717;623;47018;-56
2021/11/04 10:24:26;;;;;;;22.55;13.55;;;;;;;;;;143725;630;47010;-56
2021/11/04 10:26:56;;;;;;;24.55;14.07;;;;;;;;;;143725;634;46019;-56
2021/11/04 10:29:35;;;;;;;30.80;12.27;;;;;;;;;;143728;613;46022;-56
2021/11/04 10:32:03;;;;;;;24.77;10.98;;;;;;;;;;143725;563;47018;-56
2021/11/04 10:34:37;;;;;;;22.37;11.15;;;;;;;;;;143723;567;47010;-56
2021/11/04 10:37:30;;;;;;;22.70;9.02;;;;;;;;;;143726;565;46018;-56
2021/11/04 10:40:06;;;;;;;16.45;9.75;;;;;;;;;;143726;569;47013;-56
2021/11/04 10:42:52;;;;;;;18.30;9.65;;;;;;;;;;143725;566;47030;-56
2021/11/04 10:45:24;;;;;;;13.75;9.00;;;;;;;;;;143724;596;47010;-56
2021/11/04 10:48:17;;;;;;;20.90;9.10;;;;;;;;;;143719;619;46018;-55
2021/11/04 10:50:44;;;;;;;14.77;8.32;;;;;;;;;;143726;601;46023;-57
2021/11/04 10:53:23;;;;;;;13.40;7.97;;;;;;;;;;143725;608;47020;-55
2021/11/04 10:56:13;;;;;;;17.80;11.55;;;;;;;;;;143724;602;47011;-55
2021/11/04 10:58:40;;;;;;;22.48;12.25;;;;;;;;;;143724;570;46018;-56
2021/11/04 11:01:07;;;;;;;15.85;10.48;;;;;;;;;;143726;631;47012;-55
2021/11/04 11:03:34;;;;;;;18.12;12.10;;;;;;;;;;143725;571;47019;-55
2021/11/04 11:06:08;;;;;;;21.52;14.65;;;;;;;;;;143725;577;47010;-55
2021/11/04 11:08:35;;;;;;;53.28;44.28;;;;;;;;;;143723;587;46018;-55
2021/11/04 11:11:02;;;;;;;49.17;39.60;;;;;;;;;;143726;611;47012;-57
2021/11/04 11:13:28;;;;;;;38.97;28.38;;;;;;;;;;143717;587;48018;-57
2021/11/04 11:15:59;;;;;;;36.78;28.15;;;;;;;;;;143723;564;47010;-55
2021/11/04 11:18:27;;;;;;;28.05;18.83;;;;;;;;;;143723;572;46018;-56
2021/11/04 11:20:54;;;;;;;21.17;13.48;;;;;;;;;;143728;624;46022;-57
2021/11/04 11:23:25;;;;;;;21.15;13.73;;;;;;;;;;143721;564;49026;-55
2021/11/04 11:26:00;;;;;;;20.55;11.25;;;;;;;;;;143722;600;47010;-56
2021/11/04 11:28:35;;;;;;;15.25;10.35;;;;;;;;;;143725;706;46018;-54
2021/11/04 11:31:31;;;;;;;17.00;10.77;;;;;;;;;;143726;575;46022;-56
2021/11/04 11:34:29;;;;;;;19.37;13.77;;;;;;;;;;143724;683;47031;-55
2021/11/04 11:37:11;;;;;;;16.70;10.60;;;;;;;;;;143725;580;47010;-57
2021/11/04 11:39:52;;;;;;;18.50;9.63;;;;;;;;;;143720;605;46018;-56
2021/11/04 11:42:24;;;;;;;14.82;8.63;;;;;;;;;;143727;624;46023;-55
2021/11/04 11:44:59;;;;;;;14.55;9.77;;;;;;;;;;143724;650;47020;-56
2021/11/04 11:47:46;;;;;;;18.30;10.88;;;;;;;;;;143724;567;47011;-56
2021/11/04 11:50:32;;;;;;;20.33;10.88;;;;;;;;;;143726;565;46020;-56
2021/11/04 11:53:04;;;;;;;14.20;8.63;;;;;;;;;;143726;589;46022;-57
2021/11/04 11:55:47;;;;;;;17.83;9.10;;;;;;;;;;143725;625;47027;-55
2021/11/04 11:58:28;;;;;;;15.52;9.50;;;;;;;;;;143723;586;47010;-54
2021/11/04 12:01:16;;;;;;;17.12;8.75;;;;;;;;;;143722;611;46018;-55
2021/11/04 12:03:49;;;;;;;13.15;7.75;;;;;;;;;;143722;710;46025;-56
2021/11/04 12:06:44;;;;;;;14.90;8.95;;;;;;;;;;143722;591;47018;-57
2021/11/04 12:09:30;;;;;;;14.15;8.70;;;;;;;;;;143726;581;47010;-55
2021/11/04 12:11:57;;;;;;;14.55;6.68;;;;;;;;;;143726;615;47018;-54
2021/11/04 12:14:34;;;;;;;20.00;7.45;;;;;;;;;;143725;573;46022;-54
2021/11/04 12:17:12;;;;;;;15.48;8.52;;;;;;;;;;143724;630;47020;-55
2021/11/04 12:19:51;;;;;;;14.50;7.05;;;;;;;;;;143724;639;47010;-55
2021/11/04 12:22:40;;;;;;;15.15;8.80;;;;;;;;;;143725;616;46018;-54
2021/11/04 12:25:12;;;;;;;11.77;6.95;;;;;;;;;;143724;572;47012;-56
2021/11/04 12:27:42;;;;;;;16.60;7.50;;;;;;;;;;143725;610;47018;-55
2021/11/04 12:30:29;;;;;;;16.17;7.35;;;;;;;;;;143725;610;47010;-55
2021/11/04 12:33:25;;;;;;;26.25;14.02;;;;;;;;;;143719;609;46019;-55
2021/11/04 12:35:57;;;;;;;51.22;37.13;;;;;;;;;;143727;590;46024;-56
2021/11/04 12:38:38;;;;;;;47.67;33.85;;;;;;;;;;143724;589;47019;-54
2021/11/04 12:41:13;;;;;;;18.42;13.57;;;;;;;;;;143725;587;47010;-55
2021/11/04 12:43:41;;;;;;;28.17;18.85;;;;;;;;;;143724;616;46018;-55
2021/11/04 12:46:17;;;;;;;23.02;16.85;;;;;;;;;;143726;747;46033;-56
2021/11/04 12:49:06;;;;;;;19.37;10.35;;;;;;;;;;143725;617;47021;-56
2021/11/04 12:51:51;;;;;;;17.80;10.10;;;;;;;;;;143725;563;47010;-56
2021/11/04 12:54:29;;;;;;;16.12;10.73;;;;;;;;;;143726;575;46018;-56
2021/11/04 12:57:07;;;;;;;15.82;8.95;;;;;;;;;;143726;613;46023;-55
2021/11/04 12:59:59;;;;;;;15.23;8.55;;;;;;;;;;143717;591;47018;-55
2021/11/04 13:02:37;;;;;;;11.88;7.32;;;;;;;;;;143725;573;47011;-55
2021/11/04 13:05:08;;;;;;;14.70;8.80;;;;;;;;;;143724;584;46018;-55
2021/11/04 13:07:38;;;;;;;18.27;9.00;;;;;;;;;;143727;691;46022;-56
2021/11/04 13:10:20;;;;;;;12.68;7.82;;;;;;;;;;143724;581;46011;-56
2021/11/04 13:13:01;;;;;;;20.10;8.32;;;;;;;;;;143722;582;47010;-56
2021/11/04 13:15:31;;;;;;;14.60;8.55;;;;;;;;;;143722;571;46018;-57
2021/11/04 13:18:08;;;;;;;15.98;9.35;;;;;;;;;;143727;577;46023;-55
2021/11/04 13:20:51;;;;;;;49.05;35.58;;;;;;;;;;143724;734;47018;-55
2021/11/04 13:23:26;;;;;;;26.55;19.30;;;;;;;;;;143726;571;45919;-56
2021/11/04 13:26:03;;;;;;;24.15;16.08;;;;;;;;;;143719;593;46019;-56
2021/11/04 13:28:35;;;;;;;29.83;22.13;;;;;;;;;;143727;569;46022;-57
2021/11/04 13:31:20;;;;;;;29.67;17.95;;;;;;;;;;143724;617;47019;-56
2021/11/04 13:33:48;;;;;;;;;;;;;;;;;;143729;977;47010;-57
2021/11/04 13:36:19;;;;;;;21.98;15.60;;;;;;;;;;143729;612;46018;-56
2021/11/04 13:39:08;;;;;;;21.90;11.20;;;;;;;;;;143728;625;46022;-55
2021/11/04 13:41:49;;;;;;;19.40;12.25;;;;;;;;;;143721;604;50021;-57
2021/11/04 13:44:28;;;;;;;14.68;9.82;;;;;;;;;;143724;599;47010;-55
2021/11/04 13:46:55;;;;;;;13.43;8.20;;;;;;;;;;143726;570;46018;-56
2021/11/04 13:49:22;;;;;;;14.55;8.25;;;;;;;;;;143727;579;46023;-56
2021/11/04 13:51:58;;;;;;;16.58;10.38;;;;;;;;;;143718;606;47018;-56
2021/11/04 13:54:29;;;;;;;15.05;10.02;;;;;;;;;;143725;564;47010;-56
2021/11/04 13:57:08;;;;;;;11.95;7.28;;;;;;;;;;143724;650;46018;-57
2021/11/04 13:59:39;;;;;;;14.07;7.60;;;;;;;;;;143727;565;46022;-57
2021/11/04 14:02:14;;;;;;;15.00;8.02;;;;;;;;;;143726;628;47018;-56
2021/11/04 14:04:59;;;;;;;24.23;9.65;;;;;;;;;;143724;600;47010;-56
2021/11/04 14:07:42;;;;;;;14.55;9.38;;;;;;;;;;143724;579;46018;-55
2021/11/04 14:10:18;;;;;;;11.43;8.65;;;;;;;;;;143726;589;46023;-56
2021/11/04 14:12:51;;;;;;;16.85;8.18;;;;;;;;;;143724;611;47032;-57
2021/11/04 14:15:21;;;;;;;12.73;8.77;;;;;;;;;;143725;633;47010;-56
2021/11/04 14:17:53;;;;;;;14.85;7.97;;;;;;;;;;143719;609;46019;-56
2021/11/04 14:20:22;;;;;;;14.55;8.30;;;;;;;;;;143725;609;46022;-55
2021/11/04 14:22:49;;;;;;;13.18;8.20;;;;;;;;;;143725;566;47018;-56
2021/11/04 14:25:17;;;;;;;13.80;9.02;;;;;;;;;;143724;581;47010;-56
2021/11/04 14:28:04;;;;;;;13.95;8.57;;;;;;;;;;143725;608;46018;-56
2021/11/04 14:30:37;;;;;;;16.40;8.43;;;;;;;;;;143729;614;46022;-56
2021/11/04 14:33:04;;;;;;;16.98;9.45;;;;;;;;;;143725;578;47019;-56
2021/11/04 14:35:31;;;;;;;13.38;9.27;;;;;;;;;;143726;606;47010;-56
2021/11/04 14:37:59;;;;;;;13.45;8.82;;;;;;;;;;143725;565;46018;-56
2021/11/04 14:40:26;;;;;;;16.80;9.30;;;;;;;;;;143728;636;46023;-56